createdAt,value
2018-12-19T00:00:01.855Z,80.60
2018-12-19T00:02:34.085Z,80.73
2018-12-19T00:05:05.239Z,81.36
2018-12-19T00:07:37.549Z,81.04
2018-12-19T00:10:08.016Z,81.78
2018-12-19T00:12:42.910Z,81.85
2018-12-19T00:15:15.206Z,81.09
2018-12-19T00:17:47.298Z,81.76
2018-12-19T00:20:21.146Z,81.52
2018-12-19T00:22:53.686Z,81.41
2018-12-19T00:25:25.495Z,81.46
2018-12-19T00:27:57.942Z,81.94
2018-12-19T00:30:30.245Z,81.75
2018-12-19T00:33:02.147Z,81.35
2018-12-19T00:35:32.468Z,81.36
2018-12-19T00:38:04.165Z,81.68
2018-12-19T00:40:36.375Z,81.44
2018-12-19T00:43:08.544Z,80.96
2018-12-19T00:45:40.767Z,81.23
2018-12-19T00:48:12.978Z,80.94
2018-12-19T00:50:45.209Z,81.20
2018-12-19T00:53:17.409Z,80.90
2018-12-19T00:55:49.373Z,80.56
2018-12-19T00:58:23.865Z,80.53
2018-12-19T01:00:55.742Z,80.71
2018-12-19T01:03:27.988Z,80.26
2018-12-19T01:06:00.170Z,80.05
2018-12-19T01:08:30.486Z,80.89
2018-12-19T01:11:02.862Z,80.94
2018-12-19T01:13:35.005Z,80.40
2018-12-19T01:16:07.404Z,80.83
2018-12-19T01:18:39.671Z,80.62
2018-12-19T01:21:14.812Z,80.34
2018-12-19T01:23:46.916Z,80.00
2018-12-19T01:26:19.187Z,81.13
2018-12-19T01:28:51.606Z,80.94
2018-12-19T01:31:24.946Z,81.10
2018-12-19T01:33:55.268Z,80.84
2018-12-19T01:36:27.218Z,81.57
2018-12-19T01:38:59.536Z,81.01
2018-12-19T01:41:31.599Z,81.16
2018-12-19T01:44:04.118Z,81.20
2018-12-19T01:46:36.525Z,81.56
2018-12-19T01:49:08.581Z,81.71
2018-12-19T01:51:40.717Z,81.78
2018-12-19T01:54:11.159Z,81.67
2018-12-19T01:56:43.316Z,82.23
2018-12-19T01:59:17.710Z,81.53
2018-12-19T02:01:49.920Z,82.08
2018-12-19T02:04:21.761Z,81.92
2018-12-19T02:06:52.603Z,81.98
2018-12-19T02:09:28.901Z,82.33
2018-12-19T02:11:59.123Z,82.10
2018-12-19T02:14:31.160Z,82.23
2018-12-19T02:17:03.278Z,82.56
2018-12-19T02:19:35.238Z,81.53
2018-12-19T02:22:10.016Z,82.17
2018-12-19T02:24:41.752Z,82.01
2018-12-19T02:27:14.212Z,82.04
2018-12-19T02:29:46.534Z,82.27
2018-12-19T02:32:18.529Z,82.22
2018-12-19T02:34:50.805Z,81.63
2018-12-19T02:37:23.210Z,82.38
2018-12-19T02:39:55.660Z,82.53
2018-12-19T02:42:27.765Z,82.54
2018-12-19T02:45:00.216Z,82.64
2018-12-19T02:47:46.676Z,82.84
2018-12-19T02:50:18.731Z,82.56
2018-12-19T02:52:49.092Z,82.32
2018-12-19T02:55:21.308Z,82.64
2018-12-19T02:57:53.753Z,82.43
2018-12-19T03:00:25.970Z,82.33
2018-12-19T03:02:58.281Z,82.39
2018-12-19T03:05:30.715Z,82.58
2018-12-19T03:08:02.752Z,82.69
2018-12-19T03:10:34.977Z,82.50
2018-12-19T03:13:07.031Z,82.60
2018-12-19T03:15:39.433Z,82.19
2018-12-19T03:18:11.313Z,82.22
2018-12-19T03:20:43.695Z,82.03
2018-12-19T03:23:15.751Z,82.19
2018-12-19T03:25:48.081Z,82.54
2018-12-19T03:28:20.054Z,82.15
2018-12-19T03:30:50.250Z,81.98
2018-12-19T03:33:22.719Z,82.09
2018-12-19T03:35:53.043Z,82.12
2018-12-19T03:38:25.336Z,81.64
2018-12-19T03:40:57.564Z,82.52
2018-12-19T03:43:29.886Z,81.86
2018-12-19T03:46:02.377Z,82.21
2018-12-19T03:48:40.049Z,81.42
2018-12-19T03:51:11.739Z,81.98
2018-12-19T03:53:41.742Z,81.55
2018-12-19T03:56:14.348Z,81.33
2018-12-19T03:58:46.624Z,81.14
2018-12-19T04:01:18.351Z,81.05
2018-12-19T04:06:48.306Z,81.46
2018-12-19T04:09:18.785Z,81.07
2018-12-19T04:11:50.987Z,81.71
2018-12-19T04:14:23.305Z,81.04
2018-12-19T04:16:55.719Z,81.04
2018-12-19T04:19:27.805Z,81.57
2018-12-19T04:21:58.229Z,80.78
2018-12-19T04:24:30.466Z,81.22
2018-12-19T04:27:00.694Z,80.85
2018-12-19T04:29:33.609Z,81.07
2018-12-19T04:32:04.132Z,81.40
2018-12-19T04:34:36.671Z,81.41
2018-12-19T04:37:06.770Z,80.86
2018-12-19T04:39:38.932Z,81.03
2018-12-19T04:42:09.240Z,81.10
2018-12-19T04:44:41.265Z,81.21
2018-12-19T04:47:13.288Z,80.65
2018-12-19T04:49:43.729Z,80.52
2018-12-19T04:52:15.969Z,80.17
2018-12-19T04:54:47.615Z,80.70
2018-12-19T04:57:19.757Z,81.08
2018-12-19T04:59:51.903Z,80.64
2018-12-19T05:02:24.094Z,79.86
2018-12-19T05:04:56.184Z,80.30
2018-12-19T05:07:28.874Z,79.70
2018-12-19T05:10:03.451Z,79.80
2018-12-19T05:12:35.184Z,79.86
2018-12-19T05:15:09.251Z,79.60
2018-12-19T05:17:41.711Z,79.82
2018-12-19T05:20:13.892Z,79.83
2018-12-19T05:22:46.785Z,79.58
2018-12-19T05:25:24.984Z,79.59
2018-12-19T05:28:05.406Z,80.26
2018-12-19T05:30:36.060Z,79.67
2018-12-19T05:33:08.242Z,79.66
2018-12-19T05:35:41.590Z,79.22
2018-12-19T05:38:14.022Z,78.93
2018-12-19T05:40:46.460Z,78.62
2018-12-19T05:43:16.688Z,78.61
2018-12-19T05:45:46.829Z,78.97
2018-12-19T05:48:18.856Z,78.65
2018-12-19T05:50:50.988Z,78.63
2018-12-19T05:53:24.895Z,78.44
2018-12-19T05:55:56.506Z,78.79
2018-12-19T05:58:26.805Z,78.66
2018-12-19T06:00:59.305Z,78.57
2018-12-19T06:03:31.465Z,78.33
2018-12-19T06:06:03.474Z,77.73
2018-12-19T06:08:35.644Z,77.83
2018-12-19T06:11:07.870Z,77.19
2018-12-19T06:13:39.913Z,77.56
2018-12-19T06:16:12.038Z,76.74
2018-12-19T06:18:44.224Z,77.22
2018-12-19T06:21:16.637Z,77.23
2018-12-19T06:23:46.968Z,76.71
2018-12-19T06:26:19.215Z,77.01
2018-12-19T06:28:51.449Z,75.57
2018-12-19T06:31:23.831Z,75.36
2018-12-19T06:33:56.472Z,76.16
2018-12-19T06:36:28.615Z,76.02
2018-12-19T06:39:01.777Z,74.95
2018-12-19T06:41:33.805Z,74.91
2018-12-19T06:44:05.811Z,75.63
2018-12-19T06:46:38.422Z,75.59
2018-12-19T06:49:10.100Z,75.88
2018-12-19T06:51:42.124Z,74.83
2018-12-19T06:54:14.364Z,74.44
2018-12-19T06:56:46.608Z,74.75
2018-12-19T06:59:18.885Z,74.82
2018-12-19T07:01:51.116Z,74.90
2018-12-19T07:04:23.571Z,74.10
2018-12-19T07:06:55.889Z,74.32
2018-12-19T07:09:27.919Z,73.59
2018-12-19T07:12:00.127Z,74.24
2018-12-19T07:14:41.071Z,74.24
2018-12-19T07:17:14.326Z,74.09
2018-12-19T07:19:48.964Z,74.21
2018-12-19T07:22:25.559Z,73.87
2018-12-19T07:24:57.054Z,73.26
2018-12-19T07:27:29.870Z,73.13
2018-12-19T07:30:02.506Z,73.46
2018-12-19T07:32:34.861Z,72.91
2018-12-19T07:35:13.932Z,72.11
2018-12-19T07:40:46.150Z,72.46
2018-12-19T07:43:36.944Z,72.28
2018-12-19T07:46:10.845Z,72.18
2018-12-19T07:48:46.548Z,72.12
2018-12-19T07:51:28.521Z,71.89
2018-12-19T07:54:16.313Z,72.19
2018-12-19T07:56:52.303Z,71.53
2018-12-19T07:59:37.394Z,71.38
2018-12-19T08:02:33.780Z,71.56
2018-12-19T08:05:25.953Z,71.08
2018-12-19T08:08:08.012Z,70.98
2018-12-19T08:13:43.508Z,70.34
2018-12-19T08:19:28.448Z,69.44
2018-12-19T08:28:04.392Z,69.65
2018-12-19T08:30:55.217Z,69.45
2018-12-19T08:33:48.607Z,69.53
2018-12-19T08:36:36.870Z,70.01
2018-12-19T08:39:44.779Z,69.89
2018-12-19T08:43:02.872Z,68.93
2018-12-19T08:46:24.150Z,68.26
2018-12-19T09:07:55.725Z,66.56
2018-12-19T09:10:31.403Z,66.79
2018-12-19T09:13:02.886Z,65.73
2018-12-19T09:15:53.030Z,65.81
2018-12-19T09:18:26.322Z,66.17
2018-12-19T09:21:00.737Z,65.90
2018-12-19T09:23:33.510Z,65.37
2018-12-19T09:26:05.452Z,66.39
2018-12-19T09:28:37.699Z,66.17
2018-12-19T09:31:09.617Z,66.17
2018-12-19T09:33:41.898Z,66.36
2018-12-19T09:36:15.231Z,66.01
2018-12-19T09:38:45.502Z,66.32
2018-12-19T09:41:17.681Z,65.99
2018-12-19T09:43:50.135Z,66.13
2018-12-19T09:46:21.940Z,66.30
2018-12-19T09:48:56.290Z,66.02
2018-12-19T09:51:28.334Z,65.73
2018-12-19T09:54:00.368Z,65.36
2018-12-19T09:56:32.789Z,65.22
2018-12-19T09:59:03.085Z,65.39
2018-12-19T10:01:35.218Z,65.33
2018-12-19T10:04:07.503Z,65.03
2018-12-19T10:06:39.231Z,65.22
2018-12-19T10:09:14.960Z,64.67
2018-12-19T10:11:47.520Z,64.48
2018-12-19T10:14:22.149Z,64.28
2018-12-19T10:16:54.808Z,64.63
2018-12-19T10:19:26.780Z,64.18
2018-12-19T10:21:59.769Z,64.83
2018-12-19T10:24:36.732Z,64.90
2018-12-19T10:27:08.752Z,64.88
2018-12-19T10:29:40.973Z,64.45
2018-12-19T10:32:13.110Z,64.04
2018-12-19T10:34:45.855Z,63.44
2018-12-19T10:37:17.679Z,63.35
2018-12-19T10:39:50.252Z,64.03
2018-12-19T10:42:23.182Z,64.38
2018-12-19T10:44:55.998Z,63.57
2018-12-19T10:47:27.665Z,62.91
2018-12-19T10:49:59.921Z,63.25
2018-12-19T10:52:32.500Z,62.99
2018-12-19T10:55:05.558Z,63.43
2018-12-19T10:57:35.974Z,63.06
2018-12-19T11:00:15.896Z,61.66
2018-12-19T11:02:49.040Z,62.36
2018-12-19T11:05:20.780Z,62.47
2018-12-19T11:07:56.218Z,62.05
2018-12-19T11:10:28.763Z,61.59
2018-12-19T11:13:01.240Z,61.42
2018-12-19T11:18:05.741Z,61.31
2018-12-19T11:20:37.560Z,61.46
2018-12-19T11:23:09.615Z,60.47
2018-12-19T11:25:42.632Z,59.36
2018-12-19T11:28:15.079Z,59.51
2018-12-19T11:30:47.457Z,59.86
2018-12-19T11:33:19.467Z,60.38
2018-12-19T11:35:51.742Z,60.95
2018-12-19T11:38:24.088Z,61.84
2018-12-19T11:40:56.359Z,62.03
2018-12-19T11:43:28.735Z,61.62
2018-12-19T11:46:06.768Z,61.51
2018-12-19T11:48:39.404Z,61.54
2018-12-19T11:51:11.660Z,61.68
2018-12-19T11:53:45.201Z,61.29
2018-12-19T11:56:17.471Z,61.52
2018-12-19T11:58:53.962Z,61.58
2018-12-19T12:01:27.006Z,61.58
2018-12-19T12:03:59.604Z,61.44
2018-12-19T12:06:31.647Z,61.74
2018-12-19T12:09:07.066Z,61.73
2018-12-19T12:11:45.443Z,61.67
2018-12-19T12:14:11.540Z,61.87
2018-12-19T12:16:46.230Z,61.21
2018-12-19T12:19:22.749Z,62.16
2018-12-19T12:22:01.324Z,62.78
2018-12-19T12:24:36.359Z,63.89
2018-12-19T12:27:11.696Z,64.68
2018-12-19T12:29:46.475Z,65.81
2018-12-19T12:32:23.145Z,66.43
2018-12-19T12:35:01.879Z,66.79
2018-12-19T12:38:20.787Z,67.30
2018-12-19T12:43:57.379Z,67.10
2018-12-19T12:46:30.527Z,68.24
2018-12-19T12:49:04.794Z,68.55
2018-12-19T12:51:37.465Z,68.56
2018-12-19T12:54:10.277Z,69.57
2018-12-19T12:56:42.691Z,69.97
2018-12-19T12:59:15.610Z,70.23
2018-12-19T13:04:41.517Z,70.65
2018-12-19T13:07:14.051Z,71.20
2018-12-19T13:09:46.363Z,71.96
2018-12-19T13:12:18.647Z,71.89
2018-12-19T13:14:52.964Z,72.19
2018-12-19T13:17:24.751Z,72.42
2018-12-19T13:19:56.683Z,72.56
2018-12-19T13:22:29.988Z,72.99
2018-12-19T13:25:04.953Z,72.94
2018-12-19T13:27:37.414Z,73.48
2018-12-19T13:30:11.666Z,73.42
2018-12-19T13:32:44.408Z,73.87
2018-12-19T13:35:16.188Z,74.47
2018-12-19T13:37:48.519Z,74.17
2018-12-19T13:40:20.486Z,74.54
2018-12-19T13:42:53.204Z,74.71
2018-12-19T13:45:25.694Z,75.30
2018-12-19T13:47:57.967Z,74.85
2018-12-19T13:50:32.207Z,74.86
2018-12-19T13:53:04.282Z,75.42
2018-12-19T13:55:37.096Z,75.35
2018-12-19T13:58:09.775Z,75.88
2018-12-19T14:00:41.739Z,75.60
2018-12-19T14:03:14.096Z,76.05
2018-12-19T14:05:46.144Z,75.41
2018-12-19T14:08:16.448Z,75.79
2018-12-19T14:10:48.920Z,76.12
2018-12-19T14:13:23.643Z,76.12
2018-12-19T14:15:56.249Z,75.72
2018-12-19T14:19:32.142Z,76.17
2018-12-19T14:22:04.424Z,76.21
2018-12-19T14:24:36.501Z,76.44
2018-12-19T14:27:08.791Z,76.59
2018-12-19T14:29:41.573Z,76.59
2018-12-19T14:32:13.841Z,76.38
2018-12-19T14:34:45.768Z,76.75
2018-12-19T14:37:18.011Z,77.20
2018-12-19T14:39:49.999Z,77.43
2018-12-19T14:42:21.839Z,77.14
2018-12-19T14:44:55.329Z,77.51
2018-12-19T14:47:27.236Z,77.32
2018-12-19T14:49:59.551Z,77.31
2018-12-19T14:52:31.573Z,77.61
2018-12-19T14:55:03.683Z,77.16
2018-12-19T14:57:35.738Z,77.30
2018-12-19T15:00:11.472Z,77.46
2018-12-19T15:02:44.561Z,77.81
2018-12-19T15:05:20.842Z,77.96
2018-12-19T15:07:53.674Z,77.95
2018-12-19T15:10:25.785Z,77.75
2018-12-19T15:12:57.796Z,77.44
2018-12-19T15:15:30.575Z,77.81
2018-12-19T15:18:04.697Z,77.93
2018-12-19T15:20:38.954Z,77.73
2018-12-19T15:23:11.022Z,77.87
2018-12-19T15:25:43.166Z,77.75
2018-12-19T15:28:14.915Z,77.96
2018-12-19T15:30:47.402Z,78.19
2018-12-19T15:33:19.672Z,78.08
2018-12-19T15:36:05.803Z,77.92
2018-12-19T15:38:37.661Z,77.75
2018-12-19T15:41:10.215Z,78.15
2018-12-19T15:43:42.407Z,78.00
2018-12-19T15:46:14.533Z,77.92
2018-12-19T15:48:46.601Z,77.76
2018-12-19T15:51:19.425Z,77.37
2018-12-19T15:53:51.280Z,77.49
2018-12-19T15:56:23.536Z,77.42
2018-12-19T15:58:55.850Z,77.07
2018-12-19T16:01:28.826Z,77.38
2018-12-19T16:04:01.087Z,77.30
2018-12-19T16:06:33.606Z,77.41
2018-12-19T16:09:07.923Z,76.63
2018-12-19T16:11:40.956Z,76.14
2018-12-19T16:14:13.656Z,76.92
2018-12-19T16:16:45.732Z,76.87
2018-12-19T16:19:18.039Z,76.67
2018-12-19T16:21:50.018Z,76.64
2018-12-19T16:24:26.718Z,76.63
2018-12-19T16:27:00.501Z,76.58
2018-12-19T16:29:33.192Z,76.17
2018-12-19T16:32:05.037Z,76.15
2018-12-19T16:34:35.144Z,75.94
2018-12-19T16:37:12.676Z,76.18
2018-12-19T16:39:45.161Z,76.30
2018-12-19T16:42:19.728Z,75.94
2018-12-19T16:44:51.884Z,76.48
2018-12-19T16:47:28.398Z,76.14
2018-12-19T16:50:00.951Z,76.24
2018-12-19T16:55:26.900Z,75.82
2018-12-19T16:57:59.007Z,76.10
2018-12-19T17:00:31.448Z,75.97
2018-12-19T17:03:03.273Z,75.81
2018-12-19T17:05:35.733Z,75.08
2018-12-19T17:08:07.793Z,75.97
2018-12-19T17:10:39.904Z,75.87
2018-12-19T17:13:12.156Z,76.30
2018-12-19T17:15:44.431Z,76.05
2018-12-19T17:18:17.251Z,75.64
2018-12-19T17:20:49.309Z,75.97
2018-12-19T17:23:21.705Z,75.87
2018-12-19T17:25:53.804Z,75.86
2018-12-19T17:28:26.191Z,75.87
2018-12-19T17:30:58.194Z,75.58
2018-12-19T17:33:30.628Z,76.33
2018-12-19T17:36:03.155Z,75.90
2018-12-19T17:38:35.269Z,76.03
2018-12-19T17:41:07.327Z,76.08
2018-12-19T17:43:39.529Z,75.33
2018-12-19T17:46:12.060Z,75.45
2018-12-19T17:48:46.408Z,75.23
2018-12-19T17:51:18.356Z,75.19
2018-12-19T17:53:50.588Z,75.32
2018-12-19T17:56:22.596Z,75.18
2018-12-19T17:58:54.873Z,75.48
2018-12-19T18:01:28.596Z,74.50
2018-12-19T18:04:00.508Z,75.16
2018-12-19T18:06:32.563Z,75.41
2018-12-19T18:11:58.836Z,75.46
2018-12-19T18:14:29.344Z,75.81
2018-12-19T18:17:01.496Z,75.35
2018-12-19T18:19:33.336Z,75.05
2018-12-19T18:22:05.689Z,74.59
2018-12-19T18:24:35.676Z,75.33
2018-12-19T18:27:08.384Z,75.20
2018-12-19T18:29:40.112Z,75.25
2018-12-19T18:32:12.576Z,75.79
2018-12-19T18:34:44.561Z,74.88
2018-12-19T18:37:19.407Z,75.65
2018-12-19T18:39:52.181Z,75.50
2018-12-19T18:42:25.076Z,75.33
2018-12-19T18:44:59.700Z,75.12
2018-12-19T18:47:41.736Z,75.14
2018-12-19T18:53:01.582Z,74.63
2018-12-19T18:55:36.188Z,75.18
2018-12-19T18:58:09.335Z,75.43
2018-12-19T19:00:43.866Z,74.67
2018-12-19T19:03:16.252Z,75.33
2018-12-19T19:05:48.377Z,75.08
2018-12-19T19:08:20.524Z,75.28
2018-12-19T19:10:53.027Z,74.99
2018-12-19T19:13:24.930Z,74.71
2018-12-19T19:15:57.005Z,74.61
2018-12-19T19:18:29.391Z,74.61
2018-12-19T19:21:01.764Z,74.45
2018-12-19T19:23:36.125Z,74.78
2018-12-19T19:29:02.023Z,74.46
2018-12-19T19:31:34.367Z,75.47
2018-12-19T19:34:06.368Z,75.22
2018-12-19T19:36:39.476Z,75.07
2018-12-19T19:39:09.981Z,75.11
2018-12-19T19:41:41.886Z,74.63
2018-12-19T19:44:14.038Z,74.82
2018-12-19T19:46:46.489Z,75.82
2018-12-19T19:49:18.751Z,75.15
2018-12-19T19:51:51.123Z,75.43
2018-12-19T19:54:23.370Z,75.25
2018-12-19T19:56:55.836Z,74.88
2018-12-19T19:59:28.196Z,75.19
2018-12-19T20:02:00.413Z,74.90
2018-12-19T20:04:32.552Z,74.47
2018-12-19T20:07:05.133Z,74.50
2018-12-19T20:09:37.520Z,74.34
2018-12-19T20:12:09.800Z,74.58
2018-12-19T20:14:42.116Z,74.33
2018-12-19T20:17:18.088Z,74.94
2018-12-19T20:19:50.525Z,74.16
2018-12-19T20:22:23.161Z,74.73
2018-12-19T20:24:55.307Z,74.85
2018-12-19T20:27:30.536Z,74.15
2018-12-19T20:30:02.585Z,74.40
2018-12-19T20:32:34.719Z,74.35
2018-12-19T20:35:09.542Z,74.73
2018-12-19T20:37:41.281Z,74.34
2018-12-19T20:40:19.324Z,75.35
2018-12-19T20:45:46.299Z,74.89
2018-12-19T20:48:19.842Z,74.74
2018-12-19T20:50:54.120Z,74.41
2018-12-19T20:53:26.326Z,74.83
2018-12-19T20:56:03.845Z,74.47
2018-12-19T20:58:36.864Z,74.24
2018-12-19T21:01:09.870Z,74.68
2018-12-19T21:03:46.553Z,74.43
2018-12-19T21:06:18.432Z,74.51
2018-12-19T21:08:48.905Z,74.09
2018-12-19T21:11:21.447Z,74.30
2018-12-19T21:13:53.615Z,74.23
2018-12-19T21:18:34.645Z,74.54
2018-12-19T21:21:07.277Z,74.93
2018-12-19T21:23:42.687Z,75.21
2018-12-19T21:26:17.154Z,75.29
2018-12-19T21:28:49.097Z,75.57
2018-12-19T21:31:26.028Z,75.17
2018-12-19T21:34:10.236Z,75.32
2018-12-19T21:36:53.365Z,75.59
2018-12-19T21:39:37.247Z,74.95
2018-12-19T21:42:15.139Z,75.47
2018-12-19T21:44:48.665Z,75.56
2018-12-19T21:47:23.035Z,75.70
2018-12-19T21:49:54.977Z,75.59
2018-12-19T21:52:27.226Z,75.77
2018-12-19T21:54:59.565Z,75.56
2018-12-19T21:57:37.271Z,75.52
2018-12-19T22:03:07.955Z,76.22
2018-12-19T22:05:40.894Z,76.03
2018-12-19T22:08:13.098Z,76.27
2018-12-19T22:10:45.743Z,75.89
2018-12-19T22:13:18.718Z,75.61
2018-12-19T22:15:52.184Z,75.51
2018-12-19T22:18:30.463Z,75.83
2018-12-19T22:21:03.009Z,76.28
2018-12-19T22:23:35.588Z,76.40
2018-12-19T22:26:07.910Z,75.90
2018-12-19T22:28:45.128Z,76.20
2018-12-19T22:31:16.976Z,76.20
2018-12-19T22:33:48.975Z,75.81
2018-12-19T22:36:19.851Z,75.66
2018-12-19T22:38:51.891Z,75.57
2018-12-19T22:41:23.766Z,75.98
2018-12-19T22:43:57.233Z,75.56
2018-12-19T22:46:29.097Z,75.30
2018-12-19T22:49:00.980Z,75.77
2018-12-19T22:51:35.465Z,75.41
2018-12-19T22:54:10.136Z,75.36
2018-12-19T22:56:43.165Z,74.92
2018-12-19T22:59:16.698Z,75.10
2018-12-19T23:01:53.532Z,75.04
2018-12-19T23:04:25.799Z,75.04
2018-12-19T23:06:57.525Z,74.52
2018-12-19T23:09:32.237Z,75.06
2018-12-19T23:12:04.179Z,74.86
2018-12-19T23:14:38.628Z,74.53
2018-12-19T23:17:28.226Z,74.64
2018-12-19T23:20:02.863Z,74.74
2018-12-19T23:22:34.783Z,74.63
2018-12-19T23:25:07.941Z,74.19
2018-12-19T23:27:40.444Z,74.61
2018-12-19T23:30:14.056Z,74.44
2018-12-19T23:32:47.009Z,74.63
2018-12-19T23:35:20.875Z,74.83
2018-12-19T23:37:53.430Z,74.77
2018-12-19T23:40:25.659Z,75.01
2018-12-19T23:42:58.742Z,74.90
2018-12-19T23:45:30.768Z,74.90
2018-12-19T23:48:03.223Z,74.83
2018-12-19T23:50:34.922Z,74.75
2018-12-19T23:53:07.311Z,74.84
2018-12-19T23:55:39.932Z,75.42
2018-12-19T23:58:12.343Z,74.97
